createdAt,value
2018-08-28T00:00:03.105Z,4.53
2018-08-28T00:02:31.795Z,4.40
2018-08-28T00:05:01.802Z,4.60
2018-08-28T00:07:30.471Z,4.00
2018-08-28T00:09:59.428Z,4.10
2018-08-28T00:12:28.250Z,3.80
2018-08-28T00:14:56.990Z,4.47
2018-08-28T00:17:25.670Z,3.80
2018-08-28T00:19:54.494Z,4.03
2018-08-28T00:22:23.197Z,3.80
2018-08-28T00:24:51.907Z,4.10
2018-08-28T00:27:20.574Z,3.93
2018-08-28T00:29:49.258Z,3.87
2018-08-28T00:32:17.946Z,3.53
2018-08-28T00:34:46.633Z,3.80
2018-08-28T00:37:15.310Z,3.60
2018-08-28T00:39:43.955Z,3.67
2018-08-28T00:42:12.589Z,3.43
2018-08-28T00:44:41.249Z,3.40
2018-08-28T00:47:09.976Z,3.80
2018-08-28T00:49:38.638Z,3.97
2018-08-28T00:52:07.375Z,3.43
2018-08-28T00:54:36.069Z,3.20
2018-08-28T00:57:04.769Z,3.97
2018-08-28T00:59:33.414Z,3.43
2018-08-28T01:02:02.156Z,3.80
2018-08-28T01:04:30.863Z,3.00
2018-08-28T01:06:59.575Z,3.60
2018-08-28T01:09:28.279Z,2.77
2018-08-28T01:11:56.985Z,3.60
2018-08-28T01:14:25.726Z,2.90
2018-08-28T01:16:54.420Z,2.97
2018-08-28T01:19:23.113Z,2.90
2018-08-28T01:21:51.795Z,3.37
2018-08-28T01:24:20.449Z,3.07
2018-08-28T01:26:49.194Z,3.35
2018-08-28T01:29:17.951Z,3.07
2018-08-28T01:31:46.649Z,3.10
2018-08-28T01:34:15.349Z,3.17
2018-08-28T01:36:43.980Z,3.13
2018-08-28T01:39:12.628Z,2.87
2018-08-28T01:41:41.296Z,3.02
2018-08-28T01:44:09.966Z,3.00
2018-08-28T01:46:38.653Z,2.70
2018-08-28T01:49:07.326Z,3.05
2018-08-28T01:51:36.074Z,3.35
2018-08-28T01:54:04.780Z,3.10
2018-08-28T01:56:33.413Z,3.03
2018-08-28T01:59:02.105Z,3.42
2018-08-28T02:01:30.877Z,3.08
2018-08-28T02:03:59.540Z,3.35
2018-08-28T02:06:28.271Z,3.08
2018-08-28T02:08:56.965Z,3.45
2018-08-28T02:11:25.927Z,3.08
2018-08-28T02:13:54.652Z,3.17
2018-08-28T02:16:23.322Z,3.47
2018-08-28T02:18:52.065Z,2.85
2018-08-28T02:21:20.743Z,3.20
2018-08-28T02:23:49.401Z,3.58
2018-08-28T02:26:18.074Z,3.62
2018-08-28T02:28:46.746Z,3.65
2018-08-28T02:31:15.440Z,3.50
2018-08-28T02:33:44.258Z,3.15
2018-08-28T02:36:12.931Z,3.40
2018-08-28T02:38:41.596Z,3.77
2018-08-28T02:41:10.277Z,3.27
2018-08-28T02:43:38.938Z,4.23
2018-08-28T02:46:07.611Z,4.90
2018-08-28T02:48:36.303Z,3.70
2018-08-28T02:51:05.149Z,3.97
2018-08-28T02:53:33.771Z,4.00
2018-08-28T02:56:02.471Z,4.67
2018-08-28T02:58:31.194Z,4.50
2018-08-28T03:00:59.897Z,4.40
2018-08-28T03:03:28.555Z,4.80
2018-08-28T03:05:57.282Z,4.33
2018-08-28T03:08:25.945Z,4.23
2018-08-28T03:10:54.883Z,4.97
2018-08-28T03:13:23.536Z,4.20
2018-08-28T03:15:52.357Z,4.33
2018-08-28T03:18:21.027Z,4.40
2018-08-28T03:20:49.738Z,3.97
2018-08-28T03:23:18.425Z,4.27
2018-08-28T03:25:47.109Z,4.17
2018-08-28T03:28:15.817Z,3.97
2018-08-28T03:30:44.788Z,4.17
2018-08-28T03:33:13.444Z,3.65
2018-08-28T03:35:42.148Z,3.50
2018-08-28T03:38:10.790Z,4.08
2018-08-28T03:40:39.439Z,3.83
2018-08-28T03:43:08.113Z,3.87
2018-08-28T03:45:36.781Z,3.65
2018-08-28T03:48:05.580Z,3.40
2018-08-28T03:50:35.117Z,3.85
2018-08-28T03:53:03.842Z,4.40
2018-08-28T03:55:32.619Z,3.93
2018-08-28T03:58:01.226Z,4.10
2018-08-28T04:00:29.973Z,4.27
2018-08-28T04:02:58.694Z,4.53
2018-08-28T04:05:27.371Z,3.70
2018-08-28T04:07:56.027Z,4.67
2018-08-28T04:10:24.935Z,4.73
2018-08-28T04:12:53.626Z,4.50
2018-08-28T04:15:22.292Z,5.17
2018-08-28T04:17:51.543Z,4.43
2018-08-28T04:20:21.448Z,4.90
2018-08-28T04:22:50.120Z,4.90
2018-08-28T04:25:19.102Z,4.70
2018-08-28T04:27:48.327Z,4.70
2018-08-28T04:30:17.288Z,5.28
2018-08-28T04:32:45.914Z,4.87
2018-08-28T04:35:14.583Z,5.00
2018-08-28T04:37:43.250Z,5.30
2018-08-28T04:40:11.938Z,5.70
2018-08-28T04:42:40.602Z,5.10
2018-08-28T04:45:09.330Z,5.90
2018-08-28T04:47:38.057Z,5.30
2018-08-28T04:50:06.827Z,5.60
2018-08-28T04:52:35.820Z,4.63
2018-08-28T04:55:04.997Z,5.53
2018-08-28T04:57:33.617Z,5.90
2018-08-28T05:00:02.309Z,5.70
2018-08-28T05:02:35.854Z,5.67
2018-08-28T05:05:06.744Z,5.73
2018-08-28T05:07:35.463Z,5.83
2018-08-28T05:10:04.899Z,5.57
2018-08-28T05:12:33.578Z,6.00
2018-08-28T05:15:02.261Z,5.33
2018-08-28T05:17:31.564Z,5.53
2018-08-28T05:20:00.196Z,5.40
2018-08-28T05:22:28.967Z,5.50
2018-08-28T05:24:57.693Z,6.17
2018-08-28T05:27:26.364Z,5.90
2018-08-28T05:29:55.049Z,5.70
2018-08-28T05:32:23.723Z,5.67
2018-08-28T05:34:52.441Z,5.53
2018-08-28T05:37:21.134Z,5.37
2018-08-28T05:39:49.822Z,5.47
2018-08-28T05:42:18.490Z,5.33
2018-08-28T05:44:47.199Z,4.70
2018-08-28T05:47:15.867Z,5.50
2018-08-28T05:49:44.545Z,5.70
2018-08-28T05:52:13.285Z,5.57
2018-08-28T05:54:41.954Z,5.90
2018-08-28T05:57:10.651Z,5.67
2018-08-28T05:59:39.338Z,5.20
2018-08-28T06:02:08.007Z,4.77
2018-08-28T06:04:36.714Z,5.30
2018-08-28T06:07:05.441Z,5.33
2018-08-28T06:09:34.102Z,5.27
2018-08-28T06:12:02.809Z,5.40
2018-08-28T06:14:31.422Z,5.90
2018-08-28T06:17:00.121Z,5.37
2018-08-28T06:19:28.857Z,5.23
2018-08-28T06:21:57.563Z,5.40
2018-08-28T06:24:26.273Z,5.60
2018-08-28T06:26:54.967Z,5.47
2018-08-28T06:29:24.957Z,6.03
2018-08-28T06:31:53.654Z,5.27
2018-08-28T06:34:22.347Z,5.60
2018-08-28T06:36:50.997Z,5.33
2018-08-28T06:39:19.300Z,5.97
2018-08-28T06:41:47.982Z,6.00
2018-08-28T06:44:16.640Z,5.53
2018-08-28T06:46:45.279Z,6.03
2018-08-28T06:49:13.923Z,5.90
2018-08-28T06:51:42.636Z,6.97
2018-08-28T06:54:11.364Z,5.78
2018-08-28T06:56:40.099Z,6.00
2018-08-28T06:59:08.913Z,5.87
2018-08-28T07:01:37.608Z,6.40
2018-08-28T07:04:06.349Z,6.50
2018-08-28T07:06:35.073Z,6.40
2018-08-28T07:09:04.651Z,6.63
2018-08-28T07:11:33.302Z,7.22
2018-08-28T07:14:02.023Z,6.63
2018-08-28T07:16:30.717Z,7.07
2018-08-28T07:18:59.592Z,6.93
2018-08-28T07:21:28.285Z,7.13
2018-08-28T07:23:56.983Z,7.10
2018-08-28T07:26:25.785Z,6.33
2018-08-28T07:28:54.464Z,7.45
2018-08-28T07:31:23.309Z,7.25
2018-08-28T07:33:51.925Z,7.45
2018-08-28T07:36:20.932Z,7.28
2018-08-28T07:38:49.591Z,7.03
2018-08-28T07:41:18.299Z,6.78
2018-08-28T07:43:47.012Z,7.47
2018-08-28T07:46:15.685Z,6.78
2018-08-28T07:48:44.395Z,6.85
2018-08-28T07:51:13.114Z,7.70
2018-08-28T07:53:41.830Z,6.92
2018-08-28T07:56:10.654Z,6.42
2018-08-28T07:58:39.380Z,7.37
2018-08-28T08:01:08.108Z,7.30
2018-08-28T08:03:36.802Z,6.97
2018-08-28T08:06:05.663Z,7.17
2018-08-28T08:08:34.378Z,7.17
2018-08-28T08:11:03.239Z,6.40
2018-08-28T08:13:31.935Z,6.67
2018-08-28T08:16:00.615Z,6.70
2018-08-28T08:18:29.299Z,7.15
2018-08-28T08:20:57.973Z,6.65
2018-08-28T08:23:26.644Z,6.97
2018-08-28T08:25:55.377Z,7.05
2018-08-28T08:28:24.132Z,7.53
2018-08-28T08:30:53.047Z,6.45
2018-08-28T08:33:21.698Z,6.40
2018-08-28T08:35:50.397Z,7.25
2018-08-28T08:38:19.075Z,6.60
2018-08-28T08:40:47.770Z,7.62
2018-08-28T08:43:16.462Z,8.08
2018-08-28T08:45:45.191Z,7.55
2018-08-28T08:48:13.820Z,8.85
2018-08-28T08:50:42.554Z,7.00
2018-08-28T08:53:11.214Z,7.03
2018-08-28T08:55:39.870Z,6.72
2018-08-28T08:58:08.569Z,6.90
2018-08-28T09:00:37.286Z,6.80
2018-08-28T09:03:06.155Z,7.15
2018-08-28T09:05:34.839Z,7.67
2018-08-28T09:08:03.567Z,6.60
2018-08-28T09:10:32.343Z,7.10
2018-08-28T09:13:00.991Z,5.92
2018-08-28T09:15:29.668Z,6.40
2018-08-28T09:17:58.389Z,5.25
2018-08-28T09:20:27.109Z,6.40
2018-08-28T09:22:55.875Z,6.67
2018-08-28T09:25:24.552Z,5.78
2018-08-28T09:27:54.245Z,6.33
2018-08-28T09:30:23.131Z,6.45
2018-08-28T09:32:51.861Z,6.22
2018-08-28T09:35:20.510Z,5.35
2018-08-28T09:37:49.167Z,6.60
2018-08-28T09:40:17.875Z,5.30
2018-08-28T09:42:46.557Z,6.05
2018-08-28T09:45:14.874Z,5.37
2018-08-28T09:47:43.594Z,4.95
2018-08-28T09:50:12.365Z,4.55
2018-08-28T09:52:41.034Z,5.92
2018-08-28T09:55:09.737Z,5.67
2018-08-28T09:57:38.483Z,5.33
2018-08-28T10:00:08.767Z,4.95
2018-08-28T10:02:37.774Z,5.80
2018-08-28T10:05:06.561Z,4.87
2018-08-28T10:07:35.224Z,3.90
2018-08-28T10:10:03.958Z,4.62
2018-08-28T10:12:32.671Z,3.92
2018-08-28T10:15:01.378Z,3.12
2018-08-28T10:17:30.052Z,3.45
2018-08-28T10:19:58.679Z,4.22
2018-08-28T10:22:27.349Z,4.25
2018-08-28T10:24:56.005Z,3.47
2018-08-28T10:27:24.661Z,3.60
2018-08-28T10:29:53.468Z,4.15
2018-08-28T10:32:22.213Z,3.95
2018-08-28T10:34:51.682Z,3.95
2018-08-28T10:37:20.326Z,3.90
2018-08-28T10:39:49.102Z,3.77
2018-08-28T10:42:17.825Z,3.52
2018-08-28T10:44:46.525Z,3.33
2018-08-28T10:47:15.238Z,4.15
2018-08-28T10:49:43.899Z,4.28
2018-08-28T10:52:12.631Z,4.55
2018-08-28T10:54:41.325Z,3.83
2018-08-28T10:57:09.978Z,3.80
2018-08-28T10:59:38.697Z,3.77
2018-08-28T11:02:07.443Z,3.60
2018-08-28T11:04:36.341Z,3.90
2018-08-28T11:07:05.024Z,3.55
2018-08-28T11:09:33.743Z,4.08
2018-08-28T11:12:02.501Z,3.55
2018-08-28T11:14:31.215Z,3.60
2018-08-28T11:16:59.939Z,4.05
2018-08-28T11:19:37.599Z,3.85
2018-08-28T11:22:06.658Z,4.00
2018-08-28T11:24:35.345Z,4.15
2018-08-28T11:27:04.024Z,4.35
2018-08-28T11:29:32.698Z,4.65
2018-08-28T11:32:01.391Z,4.87
2018-08-28T11:34:30.104Z,4.22
2018-08-28T11:36:58.784Z,4.10
2018-08-28T11:39:27.498Z,4.60
2018-08-28T11:41:56.304Z,4.47
2018-08-28T11:44:25.009Z,4.05
2018-08-28T11:46:53.721Z,4.28
2018-08-28T11:49:22.523Z,3.92
2018-08-28T11:51:51.256Z,4.03
2018-08-28T11:54:19.901Z,4.22
2018-08-28T11:56:48.590Z,4.50
2018-08-28T11:59:17.343Z,4.35
2018-08-28T12:01:46.001Z,4.25
2018-08-28T12:04:14.771Z,3.98
2018-08-28T12:06:43.481Z,3.62
2018-08-28T12:09:12.382Z,3.60
2018-08-28T12:11:41.091Z,4.45
2018-08-28T12:14:09.841Z,4.17
2018-08-28T12:16:38.533Z,3.85
2018-08-28T12:19:07.285Z,3.95
2018-08-28T12:21:36.009Z,4.00
2018-08-28T12:24:04.703Z,3.92
2018-08-28T12:26:33.573Z,3.60
2018-08-28T12:29:02.215Z,3.72
2018-08-28T12:31:30.931Z,3.60
2018-08-28T12:33:59.861Z,3.67
2018-08-28T12:36:28.605Z,3.37
2018-08-28T12:38:57.342Z,4.37
2018-08-28T12:41:26.190Z,3.67
2018-08-28T12:43:55.028Z,3.87
2018-08-28T12:46:23.917Z,3.75
2018-08-28T12:48:52.591Z,3.20
2018-08-28T12:51:21.292Z,3.10
2018-08-28T12:53:50.520Z,3.40
2018-08-28T12:56:19.236Z,3.60
2018-08-28T12:58:47.897Z,4.00
2018-08-28T13:01:16.645Z,3.83
2018-08-28T13:03:45.348Z,3.90
2018-08-28T13:06:13.699Z,3.72
2018-08-28T13:08:42.400Z,4.10
2018-08-28T13:11:11.086Z,3.90
2018-08-28T13:13:39.836Z,3.47
2018-08-28T13:16:08.551Z,4.15
2018-08-28T13:18:37.230Z,3.60
2018-08-28T13:21:05.899Z,3.55
2018-08-28T13:23:34.661Z,3.80
2018-08-28T13:26:03.388Z,3.83
2018-08-28T13:28:32.014Z,4.15
2018-08-28T13:31:00.688Z,4.15
2018-08-28T13:33:29.514Z,4.17
2018-08-28T13:35:58.251Z,4.20
2018-08-28T13:38:27.031Z,5.37
2018-08-28T13:40:55.767Z,3.95
2018-08-28T13:43:24.473Z,3.80
2018-08-28T13:45:53.136Z,3.92
2018-08-28T13:48:21.860Z,4.15
2018-08-28T13:50:50.606Z,4.33
2018-08-28T13:53:19.282Z,4.30
2018-08-28T13:55:47.934Z,4.42
2018-08-28T13:58:16.651Z,3.85
2018-08-28T14:00:45.304Z,4.37
2018-08-28T14:03:13.993Z,4.35
2018-08-28T14:05:42.689Z,4.42
2018-08-28T14:08:11.384Z,4.60
2018-08-28T14:10:40.113Z,4.42
2018-08-28T14:13:08.892Z,4.35
2018-08-28T14:15:37.469Z,4.20
2018-08-28T14:18:06.388Z,3.92
2018-08-28T14:20:35.101Z,4.37
2018-08-28T14:23:03.855Z,4.15
2018-08-28T14:25:32.627Z,4.08
2018-08-28T14:28:01.343Z,4.35
2018-08-28T14:30:30.070Z,4.30
2018-08-28T14:32:58.797Z,4.75
2018-08-28T14:35:27.633Z,3.80
2018-08-28T14:37:56.242Z,3.87
2018-08-28T14:40:24.973Z,4.08
2018-08-28T14:42:53.601Z,4.12
2018-08-28T14:45:22.309Z,4.08
2018-08-28T14:47:51.057Z,3.85
2018-08-28T14:50:19.769Z,3.90
2018-08-28T14:52:53.651Z,3.92
2018-08-28T14:55:22.672Z,3.80
2018-08-28T14:57:51.356Z,3.65
2018-08-28T15:00:20.271Z,4.28
2018-08-28T15:02:49.017Z,3.42
2018-08-28T15:05:17.730Z,3.72
2018-08-28T15:07:46.388Z,3.00
2018-08-28T15:10:15.137Z,3.85
2018-08-28T15:12:43.818Z,3.47
2018-08-28T15:15:12.501Z,3.98
2018-08-28T15:17:41.207Z,3.90
2018-08-28T15:20:10.415Z,3.95
2018-08-28T15:22:39.214Z,4.08
2018-08-28T15:25:08.027Z,3.80
2018-08-28T15:27:36.794Z,3.70
2018-08-28T15:30:05.500Z,3.62
2018-08-28T15:32:34.207Z,3.75
2018-08-28T15:35:04.926Z,3.47
2018-08-28T15:37:33.650Z,3.75
2018-08-28T15:40:02.365Z,3.52
2018-08-28T15:42:31.005Z,4.22
2018-08-28T15:44:59.678Z,4.33
2018-08-28T15:47:28.336Z,4.20
2018-08-28T15:49:57.033Z,3.80
2018-08-28T15:52:25.739Z,4.17
2018-08-28T15:54:54.399Z,3.92
2018-08-28T15:57:23.095Z,3.80
2018-08-28T15:59:51.741Z,3.70
2018-08-28T16:02:20.480Z,3.98
2018-08-28T16:04:49.205Z,3.98
2018-08-28T16:07:17.940Z,4.25
2018-08-28T16:09:46.624Z,3.65
2018-08-28T16:12:15.329Z,3.80
2018-08-28T16:14:44.000Z,4.05
2018-08-28T16:17:12.663Z,11.08
2018-08-28T16:19:41.319Z,22.35
2018-08-28T16:22:10.340Z,8.63
2018-08-28T16:24:39.062Z,6.03
2018-08-28T16:27:07.744Z,4.95
2018-08-28T16:29:36.436Z,7.33
2018-08-28T16:32:05.153Z,6.00
2018-08-28T16:34:33.863Z,4.15
2018-08-28T16:37:02.542Z,3.75
2018-08-28T16:39:31.278Z,3.77
2018-08-28T16:41:59.958Z,3.80
2018-08-28T16:44:28.648Z,3.77
2018-08-28T16:47:00.170Z,3.52
2018-08-28T16:49:28.822Z,3.90
2018-08-28T16:51:57.577Z,3.50
2018-08-28T16:54:26.290Z,3.45
2018-08-28T16:56:54.978Z,3.90
2018-08-28T16:59:23.649Z,3.70
2018-08-28T17:01:52.450Z,3.95
2018-08-28T17:04:21.074Z,4.10
2018-08-28T17:06:49.725Z,3.70
2018-08-28T17:09:18.492Z,4.03
2018-08-28T17:11:47.168Z,3.90
2018-08-28T17:14:15.809Z,3.77
2018-08-28T17:16:44.522Z,3.58
2018-08-28T17:19:13.241Z,3.75
2018-08-28T17:21:41.929Z,4.00
2018-08-28T17:24:10.618Z,3.90
2018-08-28T17:26:39.428Z,4.05
2018-08-28T17:29:08.092Z,3.72
2018-08-28T17:31:36.942Z,4.47
2018-08-28T17:34:05.878Z,4.08
2018-08-28T17:36:34.553Z,3.80
2018-08-28T17:39:03.505Z,3.58
2018-08-28T17:41:32.171Z,3.27
2018-08-28T17:44:00.917Z,3.45
2018-08-28T17:46:29.663Z,3.42
2018-08-28T17:48:58.512Z,3.75
2018-08-28T17:51:27.107Z,4.17
2018-08-28T17:53:55.807Z,4.15
2018-08-28T17:56:24.492Z,3.90
2018-08-28T17:58:53.274Z,3.90
2018-08-28T18:01:21.973Z,3.72
2018-08-28T18:03:50.722Z,3.80
2018-08-28T18:06:19.409Z,3.95
2018-08-28T18:08:48.139Z,4.22
2018-08-28T18:11:16.882Z,3.85
2018-08-28T18:13:45.774Z,4.10
2018-08-28T18:16:14.469Z,4.03
2018-08-28T18:18:43.136Z,4.28
2018-08-28T18:21:11.811Z,4.65
2018-08-28T18:23:40.597Z,4.03
2018-08-28T18:26:09.308Z,4.25
2018-08-28T18:28:37.999Z,4.22
2018-08-28T18:31:06.362Z,4.35
2018-08-28T18:33:35.010Z,4.35
2018-08-28T18:36:03.430Z,4.15
2018-08-28T18:38:32.032Z,4.30
2018-08-28T18:41:00.819Z,4.37
2018-08-28T18:43:29.493Z,3.98
2018-08-28T18:45:58.143Z,4.50
2018-08-28T18:48:26.857Z,4.10
2018-08-28T18:50:55.650Z,4.10
2018-08-28T18:53:24.492Z,3.95
2018-08-28T18:55:53.222Z,3.85
2018-08-28T18:58:21.956Z,4.10
2018-08-28T19:00:50.816Z,4.22
2018-08-28T19:03:19.561Z,4.05
2018-08-28T19:05:48.310Z,3.83
2018-08-28T19:08:16.973Z,4.40
2018-08-28T19:10:46.176Z,3.85
2018-08-28T19:13:15.009Z,4.40
2018-08-28T19:15:43.772Z,4.00
2018-08-28T19:18:13.634Z,3.90
2018-08-28T19:20:42.925Z,3.95
2018-08-28T19:23:11.693Z,4.22
2018-08-28T19:25:40.356Z,4.15
2018-08-28T19:28:09.519Z,4.03
2018-08-28T19:30:38.649Z,4.12
2018-08-28T19:33:07.646Z,4.80
2018-08-28T19:35:36.792Z,4.55
2018-08-28T19:38:06.015Z,4.15
2018-08-28T19:40:34.725Z,4.72
2018-08-28T19:43:03.548Z,4.83
2018-08-28T19:45:32.305Z,4.90
2018-08-28T19:48:01.022Z,4.83
2018-08-28T19:50:29.750Z,4.47
2018-08-28T19:52:58.556Z,3.90
2018-08-28T19:55:27.337Z,4.87
2018-08-28T19:57:56.166Z,4.70
2018-08-28T20:00:24.904Z,4.90
2018-08-28T20:02:53.561Z,5.12
2018-08-28T20:05:22.257Z,5.12
2018-08-28T20:07:51.121Z,4.92
2018-08-28T20:10:19.825Z,4.58
2018-08-28T20:12:48.500Z,5.20
2018-08-28T20:15:17.143Z,5.17
2018-08-28T20:17:45.845Z,4.78
2018-08-28T20:20:14.155Z,4.33
2018-08-28T20:22:42.819Z,4.60
2018-08-28T20:25:14.387Z,4.78
2018-08-28T20:27:43.067Z,4.90
2018-08-28T20:30:11.829Z,4.78
2018-08-28T20:32:40.550Z,4.62
2018-08-28T20:35:09.233Z,4.42
2018-08-28T20:37:37.516Z,4.95
2018-08-28T20:40:06.276Z,5.08
2018-08-28T20:42:34.969Z,4.37
2018-08-28T20:45:03.632Z,4.42
2018-08-28T20:47:32.323Z,4.55
2018-08-28T20:50:00.994Z,4.58
2018-08-28T20:52:29.649Z,4.65
2018-08-28T20:54:58.322Z,4.92
2018-08-28T20:57:26.980Z,4.80
2018-08-28T20:59:55.645Z,4.80
2018-08-28T21:02:24.312Z,4.90
2018-08-28T21:04:52.984Z,4.50
2018-08-28T21:07:21.668Z,4.87
2018-08-28T21:09:50.334Z,5.12
2018-08-28T21:12:19.147Z,4.65
2018-08-28T21:14:47.811Z,4.80
2018-08-28T21:17:16.498Z,4.58
2018-08-28T21:19:45.186Z,4.65
2018-08-28T21:22:13.851Z,4.25
2018-08-28T21:24:45.379Z,4.67
2018-08-28T21:27:14.127Z,4.70
2018-08-28T21:29:42.795Z,4.65
2018-08-28T21:32:11.496Z,4.78
2018-08-28T21:34:40.206Z,5.28
2018-08-28T21:37:08.888Z,4.87
2018-08-28T21:39:37.564Z,5.03
2018-08-28T21:42:06.305Z,4.70
2018-08-28T21:44:34.956Z,4.28
2018-08-28T21:47:03.700Z,4.60
2018-08-28T21:49:32.394Z,5.03
2018-08-28T21:52:01.160Z,5.03
2018-08-28T21:54:29.861Z,4.62
2018-08-28T21:56:58.591Z,4.70
2018-08-28T21:59:27.266Z,5.00
2018-08-28T22:01:55.990Z,4.90
2018-08-28T22:04:24.678Z,4.78
2018-08-28T22:06:58.670Z,5.05
2018-08-28T22:09:27.458Z,4.65
2018-08-28T22:11:56.171Z,4.60
2018-08-28T22:14:24.902Z,5.17
2018-08-28T22:16:53.613Z,4.95
2018-08-28T22:19:22.380Z,5.05
2018-08-28T22:21:51.161Z,5.53
2018-08-28T22:24:19.810Z,4.75
2018-08-28T22:26:48.508Z,5.15
2018-08-28T22:29:17.209Z,4.67
2018-08-28T22:31:45.909Z,4.85
2018-08-28T22:34:14.694Z,4.58
2018-08-28T22:36:43.402Z,5.05
2018-08-28T22:39:12.080Z,5.20
2018-08-28T22:41:40.774Z,4.85
2018-08-28T22:44:09.453Z,4.85
2018-08-28T22:46:38.183Z,5.20
2018-08-28T22:49:06.872Z,5.10
2018-08-28T22:51:35.553Z,4.55
2018-08-28T22:54:04.255Z,4.50
2018-08-28T22:56:32.957Z,4.55
2018-08-28T22:59:01.626Z,5.10
2018-08-28T23:01:30.322Z,4.78
2018-08-28T23:03:59.043Z,5.10
2018-08-28T23:06:27.746Z,4.92
2018-08-28T23:08:56.510Z,4.87
2018-08-28T23:11:25.165Z,4.92
2018-08-28T23:13:53.850Z,5.00
2018-08-28T23:16:22.521Z,4.83
2018-08-28T23:18:51.674Z,4.78
2018-08-28T23:21:19.987Z,4.90
2018-08-28T23:23:48.634Z,5.80
2018-08-28T23:26:17.346Z,4.90
2018-08-28T23:28:46.022Z,4.58
2018-08-28T23:31:14.980Z,4.72
2018-08-28T23:33:43.685Z,4.37
2018-08-28T23:36:12.545Z,4.72
2018-08-28T23:38:41.214Z,5.42
2018-08-28T23:41:09.918Z,5.00
2018-08-28T23:43:38.597Z,4.70
2018-08-28T23:46:07.330Z,4.58
2018-08-28T23:48:36.007Z,5.10
2018-08-28T23:51:04.827Z,5.55
2018-08-28T23:53:33.623Z,5.08
2018-08-28T23:56:02.319Z,4.33
2018-08-28T23:58:30.956Z,4.58
